sensor_id;sensor_type;location;lat;lon;timestamp;pressure;altitude;pressure_sealevel;temperature;humidity
72262;BME280;60173;52.112;8.648;2023-04-22T00:00:58;99968.31;;;11.96;62.45
72262;BME280;60173;52.112;8.648;2023-04-22T00:03:25;99976.78;;;11.95;62.81
72262;BME280;60173;52.112;8.648;2023-04-22T00:05:51;99970.78;;;11.58;63.54
72262;BME280;60173;52.112;8.648;2023-04-22T00:08:18;99965.66;;;11.74;63.28
72262;BME280;60173;52.112;8.648;2023-04-22T00:10:44;99968.59;;;11.77;63.18
72262;BME280;60173;52.112;8.648;2023-04-22T00:13:10;99968.91;;;11.85;63.08
72262;BME280;60173;52.112;8.648;2023-04-22T00:15:37;99961.97;;;11.61;63.39
72262;BME280;60173;52.112;8.648;2023-04-22T00:18:03;99971.06;;;11.48;64.10
72262;BME280;60173;52.112;8.648;2023-04-22T00:20:30;99970.69;;;11.32;64.59
72262;BME280;60173;52.112;8.648;2023-04-22T00:22:56;99972.75;;;11.26;64.87
72262;BME280;60173;52.112;8.648;2023-04-22T00:25:23;99974.34;;;11.27;65.30
72262;BME280;60173;52.112;8.648;2023-04-22T00:27:49;99965.03;;;11.11;65.68
72262;BME280;60173;52.112;8.648;2023-04-22T00:30:15;99962.78;;;11.13;65.63
72262;BME280;60173;52.112;8.648;2023-04-22T00:32:41;99968.09;;;11.18;65.61
72262;BME280;60173;52.112;8.648;2023-04-22T00:35:08;99967.56;;;11.07;66.02
72262;BME280;60173;52.112;8.648;2023-04-22T00:37:34;99971.97;;;10.95;66.45
72262;BME280;60173;52.112;8.648;2023-04-22T00:40:01;99965.78;;;11.03;66.08
72262;BME280;60173;52.112;8.648;2023-04-22T00:42:28;99972.19;;;11.07;65.62
72262;BME280;60173;52.112;8.648;2023-04-22T00:44:54;99960.81;;;11.05;65.69
72262;BME280;60173;52.112;8.648;2023-04-22T00:47:21;99956.44;;;11.26;64.90
72262;BME280;60173;52.112;8.648;2023-04-22T00:49:48;99965.09;;;11.28;64.67
72262;BME280;60173;52.112;8.648;2023-04-22T00:52:15;99952.78;;;11.40;64.32
72262;BME280;60173;52.112;8.648;2023-04-22T00:54:41;99946.13;;;11.46;64.10
72262;BME280;60173;52.112;8.648;2023-04-22T00:57:07;99955.72;;;11.52;63.56
72262;BME280;60173;52.112;8.648;2023-04-22T00:59:34;99950.91;;;11.40;63.88
72262;BME280;60173;52.112;8.648;2023-04-22T01:02:00;99957.75;;;11.38;64.07
72262;BME280;60173;52.112;8.648;2023-04-22T01:04:29;99950.38;;;11.29;64.53
72262;BME280;60173;52.112;8.648;2023-04-22T01:06:56;99958.03;;;11.27;64.34
72262;BME280;60173;52.112;8.648;2023-04-22T01:09:23;99955.28;;;11.19;64.91
72262;BME280;60173;52.112;8.648;2023-04-22T01:11:49;99960.44;;;11.29;64.68
72262;BME280;60173;52.112;8.648;2023-04-22T01:14:16;99962.78;;;11.13;65.67
72262;BME280;60173;52.112;8.648;2023-04-22T01:16:42;99951.69;;;11.01;66.00
72262;BME280;60173;52.112;8.648;2023-04-22T01:19:10;99945.56;;;10.86;66.80
72262;BME280;60173;52.112;8.648;2023-04-22T01:21:38;99947.94;;;10.79;67.33
72262;BME280;60173;52.112;8.648;2023-04-22T01:24:05;99949.66;;;10.75;67.20
72262;BME280;60173;52.112;8.648;2023-04-22T01:26:32;99946.31;;;10.78;67.34
72262;BME280;60173;52.112;8.648;2023-04-22T01:29:00;99945.97;;;10.71;67.52
72262;BME280;60173;52.112;8.648;2023-04-22T01:31:28;99940.72;;;10.75;67.81
72262;BME280;60173;52.112;8.648;2023-04-22T01:33:54;99943.03;;;10.59;67.47
72262;BME280;60173;52.112;8.648;2023-04-22T01:36:21;99945.06;;;10.53;67.93
72262;BME280;60173;52.112;8.648;2023-04-22T01:38:47;99947.47;;;10.55;67.90
72262;BME280;60173;52.112;8.648;2023-04-22T01:41:14;99941.53;;;10.53;68.05
72262;BME280;60173;52.112;8.648;2023-04-22T01:43:41;99946.72;;;10.40;68.36
72262;BME280;60173;52.112;8.648;2023-04-22T01:46:08;99946.28;;;10.25;69.44
72262;BME280;60173;52.112;8.648;2023-04-22T01:48:35;99943.22;;;10.40;69.10
72262;BME280;60173;52.112;8.648;2023-04-22T01:51:02;99940.94;;;10.33;69.14
72262;BME280;60173;52.112;8.648;2023-04-22T01:53:28;99940.69;;;10.44;68.78
72262;BME280;60173;52.112;8.648;2023-04-22T01:55:55;99945.00;;;10.45;68.91
72262;BME280;60173;52.112;8.648;2023-04-22T01:58:21;99945.56;;;10.33;68.92
72262;BME280;60173;52.112;8.648;2023-04-22T02:00:47;99942.88;;;10.19;69.34
72262;BME280;60173;52.112;8.648;2023-04-22T02:03:14;99939.16;;;10.15;69.96
72262;BME280;60173;52.112;8.648;2023-04-22T02:05:40;99952.38;;;10.08;70.27
72262;BME280;60173;52.112;8.648;2023-04-22T02:08:07;99938.22;;;9.97;70.93
72262;BME280;60173;52.112;8.648;2023-04-22T02:10:33;99940.88;;;9.88;71.47
72262;BME280;60173;52.112;8.648;2023-04-22T02:12:59;99937.84;;;9.90;71.68
72262;BME280;60173;52.112;8.648;2023-04-22T02:15:26;99942.78;;;9.88;71.77
72262;BME280;60173;52.112;8.648;2023-04-22T02:17:52;99938.94;;;9.89;71.63
72262;BME280;60173;52.112;8.648;2023-04-22T02:20:18;99935.00;;;9.95;71.44
72262;BME280;60173;52.112;8.648;2023-04-22T02:22:45;99941.38;;;9.90;71.83
72262;BME280;60173;52.112;8.648;2023-04-22T02:25:11;99938.03;;;9.93;71.46
72262;BME280;60173;52.112;8.648;2023-04-22T02:27:37;99937.84;;;9.90;71.74
72262;BME280;60173;52.112;8.648;2023-04-22T02:30:04;99941.44;;;9.99;71.56
72262;BME280;60173;52.112;8.648;2023-04-22T02:32:31;99936.44;;;9.92;71.83
72262;BME280;60173;52.112;8.648;2023-04-22T02:34:57;99932.72;;;9.88;72.17
72262;BME280;60173;52.112;8.648;2023-04-22T02:37:24;99934.13;;;9.86;72.23
72262;BME280;60173;52.112;8.648;2023-04-22T02:39:50;99936.94;;;9.94;71.63
72262;BME280;60173;52.112;8.648;2023-04-22T02:42:16;99934.22;;;9.94;71.79
72262;BME280;60173;52.112;8.648;2023-04-22T02:44:43;99927.50;;;9.92;71.73
72262;BME280;60173;52.112;8.648;2023-04-22T02:47:09;99935.63;;;9.92;71.71
72262;BME280;60173;52.112;8.648;2023-04-22T02:49:36;99935.16;;;9.90;72.02
72262;BME280;60173;52.112;8.648;2023-04-22T02:52:04;99944.69;;;9.87;72.32
72262;BME280;60173;52.112;8.648;2023-04-22T02:54:30;99933.94;;;9.82;72.65
72262;BME280;60173;52.112;8.648;2023-04-22T02:56:56;99931.75;;;9.84;72.54
72262;BME280;60173;52.112;8.648;2023-04-22T02:59:23;99927.91;;;9.85;72.60
72262;BME280;60173;52.112;8.648;2023-04-22T03:01:49;99934.03;;;9.91;72.48
72262;BME280;60173;52.112;8.648;2023-04-22T03:04:15;99933.59;;;9.98;72.56
72262;BME280;60173;52.112;8.648;2023-04-22T03:06:42;99919.69;;;10.13;71.56
72262;BME280;60173;52.112;8.648;2023-04-22T03:09:08;99923.72;;;10.15;71.56
72262;BME280;60173;52.112;8.648;2023-04-22T03:11:35;99921.19;;;10.19;71.58
72262;BME280;60173;52.112;8.648;2023-04-22T03:14:01;99916.84;;;10.18;71.86
72262;BME280;60173;52.112;8.648;2023-04-22T03:16:27;99923.09;;;10.18;72.21
72262;BME280;60173;52.112;8.648;2023-04-22T03:18:54;99930.13;;;10.19;72.13
72262;BME280;60173;52.112;8.648;2023-04-22T03:21:20;99923.28;;;10.22;71.97
72262;BME280;60173;52.112;8.648;2023-04-22T03:23:47;99925.47;;;10.20;71.79
72262;BME280;60173;52.112;8.648;2023-04-22T03:26:13;99924.63;;;10.11;72.47
72262;BME280;60173;52.112;8.648;2023-04-22T03:28:39;99921.28;;;10.14;72.44
72262;BME280;60173;52.112;8.648;2023-04-22T03:31:05;99919.25;;;10.19;72.02
72262;BME280;60173;52.112;8.648;2023-04-22T03:33:32;99921.00;;;10.15;72.53
72262;BME280;60173;52.112;8.648;2023-04-22T03:35:58;99917.84;;;10.22;72.05
72262;BME280;60173;52.112;8.648;2023-04-22T03:38:25;99914.44;;;10.16;72.53
72262;BME280;60173;52.112;8.648;2023-04-22T03:40:51;99915.97;;;10.09;72.95
72262;BME280;60173;52.112;8.648;2023-04-22T03:43:17;99908.28;;;10.02;73.24
72262;BME280;60173;52.112;8.648;2023-04-22T03:45:44;99912.78;;;10.07;73.21
72262;BME280;60173;52.112;8.648;2023-04-22T03:48:10;99911.06;;;10.11;73.15
72262;BME280;60173;52.112;8.648;2023-04-22T03:50:37;99911.34;;;10.09;73.02
72262;BME280;60173;52.112;8.648;2023-04-22T03:53:03;99909.81;;;10.17;73.06
72262;BME280;60173;52.112;8.648;2023-04-22T03:55:29;99908.28;;;10.25;72.70
72262;BME280;60173;52.112;8.648;2023-04-22T03:57:56;99912.84;;;10.15;72.82
72262;BME280;60173;52.112;8.648;2023-04-22T04:00:22;99913.38;;;10.26;72.78
72262;BME280;60173;52.112;8.648;2023-04-22T04:02:48;99912.59;;;10.26;72.59
72262;BME280;60173;52.112;8.648;2023-04-22T04:05:15;99907.78;;;10.23;72.34
72262;BME280;60173;52.112;8.648;2023-04-22T04:07:42;99911.19;;;10.28;72.79
72262;BME280;60173;52.112;8.648;2023-04-22T04:10:09;99911.00;;;10.25;73.14
72262;BME280;60173;52.112;8.648;2023-04-22T04:12:36;99907.25;;;10.34;72.59
72262;BME280;60173;52.112;8.648;2023-04-22T04:15:03;99903.16;;;10.23;72.90
72262;BME280;60173;52.112;8.648;2023-04-22T04:17:29;99904.19;;;10.27;72.65
72262;BME280;60173;52.112;8.648;2023-04-22T04:19:56;99908.56;;;10.23;73.12
72262;BME280;60173;52.112;8.648;2023-04-22T04:22:22;99914.41;;;10.30;72.89
72262;BME280;60173;52.112;8.648;2023-04-22T04:24:48;99910.59;;;10.31;72.64
72262;BME280;60173;52.112;8.648;2023-04-22T04:27:15;99911.38;;;10.32;72.76
72262;BME280;60173;52.112;8.648;2023-04-22T04:29:41;99901.69;;;10.39;72.45
72262;BME280;60173;52.112;8.648;2023-04-22T04:32:08;99901.59;;;10.45;72.43
72262;BME280;60173;52.112;8.648;2023-04-22T04:34:34;99901.25;;;10.46;72.58
72262;BME280;60173;52.112;8.648;2023-04-22T04:37:00;99899.84;;;10.49;72.32
72262;BME280;60173;52.112;8.648;2023-04-22T04:39:27;99905.00;;;10.59;72.29
72262;BME280;60173;52.112;8.648;2023-04-22T04:41:54;99903.44;;;10.67;71.87
72262;BME280;60173;52.112;8.648;2023-04-22T04:44:20;99901.34;;;10.63;72.08
72262;BME280;60173;52.112;8.648;2023-04-22T04:46:47;99904.91;;;10.73;71.87
72262;BME280;60173;52.112;8.648;2023-04-22T04:49:13;99894.88;;;10.73;71.56
72262;BME280;60173;52.112;8.648;2023-04-22T04:51:39;99897.38;;;10.70;71.45
72262;BME280;60173;52.112;8.648;2023-04-22T04:54:06;99893.31;;;10.58;72.63
72262;BME280;60173;52.112;8.648;2023-04-22T04:56:32;99891.78;;;10.66;72.11
72262;BME280;60173;52.112;8.648;2023-04-22T04:58:58;99893.06;;;10.69;72.27
72262;BME280;60173;52.112;8.648;2023-04-22T05:01:25;99885.47;;;10.79;71.83
72262;BME280;60173;52.112;8.648;2023-04-22T05:03:51;99890.22;;;10.74;72.25
72262;BME280;60173;52.112;8.648;2023-04-22T05:06:18;99884.34;;;10.80;72.20
72262;BME280;60173;52.112;8.648;2023-04-22T05:08:44;99885.94;;;10.81;72.36
72262;BME280;60173;52.112;8.648;2023-04-22T05:11:10;99890.59;;;10.90;72.25
72262;BME280;60173;52.112;8.648;2023-04-22T05:13:37;99889.34;;;10.96;71.68
72262;BME280;60173;52.112;8.648;2023-04-22T05:16:03;99892.56;;;10.98;71.41
72262;BME280;60173;52.112;8.648;2023-04-22T05:18:30;99896.59;;;11.09;71.18
72262;BME280;60173;52.112;8.648;2023-04-22T05:20:56;99899.44;;;11.04;71.83
72262;BME280;60173;52.112;8.648;2023-04-22T05:23:23;99909.00;;;10.93;72.25
72262;BME280;60173;52.112;8.648;2023-04-22T05:25:49;99900.88;;;11.01;72.04
72262;BME280;60173;52.112;8.648;2023-04-22T05:28:18;99910.69;;;11.11;71.58
72262;BME280;60173;52.112;8.648;2023-04-22T05:30:44;99900.44;;;11.08;72.14
72262;BME280;60173;52.112;8.648;2023-04-22T05:33:11;99902.41;;;11.34;71.61
72262;BME280;60173;52.112;8.648;2023-04-22T05:35:37;99904.84;;;11.44;70.75
72262;BME280;60173;52.112;8.648;2023-04-22T05:38:03;99907.44;;;11.66;70.02
72262;BME280;60173;52.112;8.648;2023-04-22T05:40:30;99910.47;;;11.65;69.96
72262;BME280;60173;52.112;8.648;2023-04-22T05:42:56;99905.81;;;11.83;69.50
72262;BME280;60173;52.112;8.648;2023-04-22T05:45:22;99910.66;;;12.03;69.41
72262;BME280;60173;52.112;8.648;2023-04-22T05:47:49;99914.34;;;12.07;68.79
72262;BME280;60173;52.112;8.648;2023-04-22T05:50:15;99919.31;;;12.23;68.51
72262;BME280;60173;52.112;8.648;2023-04-22T05:52:41;99913.66;;;12.45;67.04
72262;BME280;60173;52.112;8.648;2023-04-22T05:55:08;99913.03;;;12.48;67.37
72262;BME280;60173;52.112;8.648;2023-04-22T05:57:34;99907.53;;;12.65;66.83
72262;BME280;60173;52.112;8.648;2023-04-22T06:00:02;99912.09;;;12.91;65.96
72262;BME280;60173;52.112;8.648;2023-04-22T06:02:29;99912.69;;;13.05;65.65
72262;BME280;60173;52.112;8.648;2023-04-22T06:04:56;99906.50;;;13.26;64.90
72262;BME280;60173;52.112;8.648;2023-04-22T06:07:23;99907.81;;;13.49;64.29
72262;BME280;60173;52.112;8.648;2023-04-22T06:09:49;99906.56;;;13.68;63.23
72262;BME280;60173;52.112;8.648;2023-04-22T06:12:18;99905.03;;;13.79;63.45
72262;BME280;60173;52.112;8.648;2023-04-22T06:14:44;99904.50;;;13.86;63.29
72262;BME280;60173;52.112;8.648;2023-04-22T06:17:11;99907.97;;;13.95;62.71
72262;BME280;60173;52.112;8.648;2023-04-22T06:19:37;99905.00;;;14.00;62.15
72262;BME280;60173;52.112;8.648;2023-04-22T06:22:04;99901.19;;;13.80;63.10
72262;BME280;60173;52.112;8.648;2023-04-22T06:24:30;99897.97;;;13.78;63.42
72262;BME280;60173;52.112;8.648;2023-04-22T06:26:57;99905.56;;;13.93;62.47
72262;BME280;60173;52.112;8.648;2023-04-22T06:29:23;99896.50;;;14.01;62.26
72262;BME280;60173;52.112;8.648;2023-04-22T06:31:49;99899.31;;;14.26;62.15
72262;BME280;60173;52.112;8.648;2023-04-22T06:34:16;99903.59;;;14.48;61.10
72262;BME280;60173;52.112;8.648;2023-04-22T06:36:43;99893.09;;;14.59;61.02
72262;BME280;60173;52.112;8.648;2023-04-22T06:39:09;99889.31;;;14.63;61.26
72262;BME280;60173;52.112;8.648;2023-04-22T06:41:35;99885.25;;;14.69;60.50
72262;BME280;60173;52.112;8.648;2023-04-22T06:44:02;99869.22;;;15.05;59.18
72262;BME280;60173;52.112;8.648;2023-04-22T06:46:28;99874.66;;;14.80;59.05
72262;BME280;60173;52.112;8.648;2023-04-22T06:48:54;99863.06;;;14.96;58.47
72262;BME280;60173;52.112;8.648;2023-04-22T06:51:21;99856.19;;;15.26;58.16
72262;BME280;60173;52.112;8.648;2023-04-22T06:53:47;99864.28;;;15.35;58.17
72262;BME280;60173;52.112;8.648;2023-04-22T06:56:14;99862.56;;;15.18;59.00
72262;BME280;60173;52.112;8.648;2023-04-22T06:58:40;99897.44;;;15.21;59.05
72262;BME280;60173;52.112;8.648;2023-04-22T07:01:06;99882.50;;;15.19;57.79
72262;BME280;60173;52.112;8.648;2023-04-22T07:03:33;99889.94;;;14.94;59.82
72262;BME280;60173;52.112;8.648;2023-04-22T07:05:59;99883.47;;;15.10;58.64
72262;BME280;60173;52.112;8.648;2023-04-22T07:08:26;99886.75;;;15.16;58.71
72262;BME280;60173;52.112;8.648;2023-04-22T07:10:52;99877.63;;;15.36;57.88
72262;BME280;60173;52.112;8.648;2023-04-22T07:13:19;99877.88;;;15.19;59.10
72262;BME280;60173;52.112;8.648;2023-04-22T07:15:45;99886.63;;;15.25;58.04
72262;BME280;60173;52.112;8.648;2023-04-22T07:18:11;99880.56;;;15.44;58.56
72262;BME280;60173;52.112;8.648;2023-04-22T07:20:38;99876.19;;;15.67;57.28
72262;BME280;60173;52.112;8.648;2023-04-22T07:23:04;99876.72;;;16.13;57.54
72262;BME280;60173;52.112;8.648;2023-04-22T07:25:30;99874.69;;;16.54;55.68
72262;BME280;60173;52.112;8.648;2023-04-22T07:27:57;99873.00;;;16.65;54.69
72262;BME280;60173;52.112;8.648;2023-04-22T07:30:23;99870.69;;;16.52;55.69
72262;BME280;60173;52.112;8.648;2023-04-22T07:32:50;99871.06;;;16.66;55.63
72262;BME280;60173;52.112;8.648;2023-04-22T07:35:16;99865.25;;;16.99;54.60
72262;BME280;60173;52.112;8.648;2023-04-22T07:37:42;99871.22;;;17.36;54.19
72262;BME280;60173;52.112;8.648;2023-04-22T07:40:09;99873.72;;;17.26;53.66
72262;BME280;60173;52.112;8.648;2023-04-22T07:42:37;99872.16;;;17.09;54.02
72262;BME280;60173;52.112;8.648;2023-04-22T07:45:05;99870.72;;;17.15;54.23
72262;BME280;60173;52.112;8.648;2023-04-22T07:47:31;99871.22;;;17.36;53.92
72262;BME280;60173;52.112;8.648;2023-04-22T07:49:58;99871.25;;;17.91;52.12
72262;BME280;60173;52.112;8.648;2023-04-22T07:52:24;99875.50;;;18.08;51.50
72262;BME280;60173;52.112;8.648;2023-04-22T07:54:50;99872.25;;;18.02;51.23
72262;BME280;60173;52.112;8.648;2023-04-22T07:57:17;99875.72;;;17.99;50.79
72262;BME280;60173;52.112;8.648;2023-04-22T07:59:43;99881.78;;;17.89;51.83
72262;BME280;60173;52.112;8.648;2023-04-22T08:02:09;99868.63;;;17.98;51.47
72262;BME280;60173;52.112;8.648;2023-04-22T08:04:36;99863.78;;;18.11;51.70
72262;BME280;60173;52.112;8.648;2023-04-22T08:07:02;99861.22;;;18.64;50.68
72262;BME280;60173;52.112;8.648;2023-04-22T08:09:42;99860.91;;;18.69;49.24
72262;BME280;60173;52.112;8.648;2023-04-22T08:12:08;99856.97;;;18.47;49.55
72262;BME280;60173;52.112;8.648;2023-04-22T08:14:35;99855.03;;;18.48;50.39
72262;BME280;60173;52.112;8.648;2023-04-22T08:17:01;99848.63;;;18.63;49.25
72262;BME280;60173;52.112;8.648;2023-04-22T08:19:27;99849.28;;;18.57;50.25
72262;BME280;60173;52.112;8.648;2023-04-22T08:21:54;99852.63;;;18.23;50.14
72262;BME280;60173;52.112;8.648;2023-04-22T08:24:20;99853.53;;;18.31;50.44
72262;BME280;60173;52.112;8.648;2023-04-22T08:26:46;99855.88;;;18.29;50.94
72262;BME280;60173;52.112;8.648;2023-04-22T08:29:13;99854.41;;;18.35;51.21
72262;BME280;60173;52.112;8.648;2023-04-22T08:31:40;99847.97;;;18.27;51.82
72262;BME280;60173;52.112;8.648;2023-04-22T08:34:07;99849.50;;;18.25;51.11
72262;BME280;60173;52.112;8.648;2023-04-22T08:36:33;99864.13;;;18.10;51.96
72262;BME280;60173;52.112;8.648;2023-04-22T08:38:59;99852.50;;;18.39;51.28
72262;BME280;60173;52.112;8.648;2023-04-22T08:41:26;99848.78;;;18.28;51.63
72262;BME280;60173;52.112;8.648;2023-04-22T08:43:53;99833.94;;;18.56;50.85
72262;BME280;60173;52.112;8.648;2023-04-22T08:46:21;99835.94;;;19.05;50.05
72262;BME280;60173;52.112;8.648;2023-04-22T08:48:47;99828.25;;;19.17;49.81
72262;BME280;60173;52.112;8.648;2023-04-22T08:51:15;99824.50;;;19.29;48.33
72262;BME280;60173;52.112;8.648;2023-04-22T08:53:43;99835.28;;;19.15;48.54
72262;BME280;60173;52.112;8.648;2023-04-22T08:56:11;99828.38;;;19.25;49.41
72262;BME280;60173;52.112;8.648;2023-04-22T08:58:40;99827.16;;;19.22;49.81
72262;BME280;60173;52.112;8.648;2023-04-22T09:01:07;99832.94;;;19.43;49.43
72262;BME280;60173;52.112;8.648;2023-04-22T09:03:35;99830.06;;;19.33;50.01
72262;BME280;60173;52.112;8.648;2023-04-22T09:06:03;99833.38;;;19.76;48.86
72262;BME280;60173;52.112;8.648;2023-04-22T09:08:33;99827.13;;;19.49;48.13
72262;BME280;60173;52.112;8.648;2023-04-22T09:10:59;99831.69;;;19.37;48.55
72262;BME280;60173;52.112;8.648;2023-04-22T09:13:26;99820.28;;;19.66;48.64
72262;BME280;60173;52.112;8.648;2023-04-22T09:15:52;99826.94;;;19.64;46.44
72262;BME280;60173;52.112;8.648;2023-04-22T09:18:19;99812.88;;;20.07;47.58
72262;BME280;60173;52.112;8.648;2023-04-22T09:20:47;99807.50;;;20.21;45.13
72262;BME280;60173;52.112;8.648;2023-04-22T09:23:14;99815.38;;;20.19;46.35
72262;BME280;60173;52.112;8.648;2023-04-22T09:25:40;99812.66;;;19.85;45.84
72262;BME280;60173;52.112;8.648;2023-04-22T09:28:10;99803.34;;;19.97;47.97
72262;BME280;60173;52.112;8.648;2023-04-22T09:30:37;99800.44;;;19.53;46.71
72262;BME280;60173;52.112;8.648;2023-04-22T09:33:05;99788.47;;;20.05;45.27
72262;BME280;60173;52.112;8.648;2023-04-22T09:35:35;99792.00;;;20.47;46.99
72262;BME280;60173;52.112;8.648;2023-04-22T09:38:03;99782.31;;;20.64;46.49
72262;BME280;60173;52.112;8.648;2023-04-22T09:40:30;99785.94;;;20.71;46.24
72262;BME280;60173;52.112;8.648;2023-04-22T09:43:00;99781.75;;;20.47;47.30
72262;BME280;60173;52.112;8.648;2023-04-22T09:45:31;99782.50;;;20.44;46.23
72262;BME280;60173;52.112;8.648;2023-04-22T09:48:01;99782.41;;;20.74;46.53
72262;BME280;60173;52.112;8.648;2023-04-22T09:50:28;99787.91;;;20.74;46.96
72262;BME280;60173;52.112;8.648;2023-04-22T09:52:59;99790.78;;;20.89;44.23
72262;BME280;60173;52.112;8.648;2023-04-22T09:55:28;99788.97;;;20.59;45.31
72262;BME280;60173;52.112;8.648;2023-04-22T09:57:56;99790.34;;;20.39;45.72
72262;BME280;60173;52.112;8.648;2023-04-22T10:00:28;99781.09;;;20.61;45.28
72262;BME280;60173;52.112;8.648;2023-04-22T10:02:56;99786.72;;;20.75;44.51
72262;BME280;60173;52.112;8.648;2023-04-22T10:05:22;99776.47;;;20.72;45.21
72262;BME280;60173;52.112;8.648;2023-04-22T10:07:50;99769.00;;;20.76;45.77
72262;BME280;60173;52.112;8.648;2023-04-22T10:10:16;99766.84;;;21.14;45.46
72262;BME280;60173;52.112;8.648;2023-04-22T10:12:43;99773.44;;;21.69;45.92
72262;BME280;60173;52.112;8.648;2023-04-22T10:15:10;99774.72;;;21.96;42.23
72262;BME280;60173;52.112;8.648;2023-04-22T10:17:37;99768.00;;;21.97;43.92
72262;BME280;60173;52.112;8.648;2023-04-22T10:20:10;99762.09;;;22.02;42.21
72262;BME280;60173;52.112;8.648;2023-04-22T10:22:39;99754.19;;;22.08;42.12
72262;BME280;60173;52.112;8.648;2023-04-22T10:25:26;99747.88;;;22.07;42.55
72262;BME280;60173;52.112;8.648;2023-04-22T10:28:14;99750.22;;;22.12;40.14
72262;BME280;60173;52.112;8.648;2023-04-22T10:30:41;99739.94;;;21.88;42.14
72262;BME280;60173;52.112;8.648;2023-04-22T10:36:05;99732.84;;;22.12;43.08
72262;BME280;60173;52.112;8.648;2023-04-22T10:41:28;99735.66;;;22.30;41.75
72262;BME280;60173;52.112;8.648;2023-04-22T10:43:57;99730.47;;;22.03;43.04
72262;BME280;60173;52.112;8.648;2023-04-22T10:48:56;99719.47;;;22.46;42.56
72262;BME280;60173;52.112;8.648;2023-04-22T10:52:00;99724.19;;;22.46;42.74
72262;BME280;60173;52.112;8.648;2023-04-22T10:59:27;99705.97;;;22.12;40.52
72262;BME280;60173;52.112;8.648;2023-04-22T11:01:53;99703.25;;;22.23;41.10
72262;BME280;60173;52.112;8.648;2023-04-22T11:04:22;99699.72;;;22.23;40.86
72262;BME280;60173;52.112;8.648;2023-04-22T11:09:52;99701.28;;;22.38;42.03
72262;BME280;60173;52.112;8.648;2023-04-22T11:17:33;99691.38;;;22.44;40.39
72262;BME280;60173;52.112;8.648;2023-04-22T11:20:00;99685.47;;;22.21;40.05
72262;BME280;60173;52.112;8.648;2023-04-22T11:22:26;99682.69;;;22.49;38.83
72262;BME280;60173;52.112;8.648;2023-04-22T11:24:57;99687.84;;;22.51;39.55
72262;BME280;60173;52.112;8.648;2023-04-22T11:27:24;99680.28;;;22.62;39.27
72262;BME280;60173;52.112;8.648;2023-04-22T11:30:08;99683.03;;;22.80;39.92
72262;BME280;60173;52.112;8.648;2023-04-22T11:32:38;99670.31;;;22.93;39.91
72262;BME280;60173;52.112;8.648;2023-04-22T11:35:08;99664.78;;;22.93;39.61
72262;BME280;60173;52.112;8.648;2023-04-22T11:37:51;99656.91;;;22.92;39.91
72262;BME280;60173;52.112;8.648;2023-04-22T11:40:22;99670.75;;;22.85;39.54
72262;BME280;60173;52.112;8.648;2023-04-22T11:42:57;99660.09;;;22.76;39.97
72262;BME280;60173;52.112;8.648;2023-04-22T11:45:25;99660.50;;;22.78;40.44
72262;BME280;60173;52.112;8.648;2023-04-22T11:47:52;99660.94;;;22.66;40.60
72262;BME280;60173;52.112;8.648;2023-04-22T11:50:24;99664.41;;;22.98;41.31
72262;BME280;60173;52.112;8.648;2023-04-22T11:52:59;99667.59;;;22.86;39.73
72262;BME280;60173;52.112;8.648;2023-04-22T11:55:28;99651.72;;;23.05;39.50
72262;BME280;60173;52.112;8.648;2023-04-22T11:58:24;99656.88;;;23.06;39.78
72262;BME280;60173;52.112;8.648;2023-04-22T12:00:52;99660.00;;;23.12;38.94
72262;BME280;60173;52.112;8.648;2023-04-22T12:03:23;99652.81;;;23.25;39.52
72262;BME280;60173;52.112;8.648;2023-04-22T12:05:53;99649.94;;;23.46;38.80
72262;BME280;60173;52.112;8.648;2023-04-22T12:08:40;99644.66;;;23.70;39.58
72262;BME280;60173;52.112;8.648;2023-04-22T12:11:07;99638.31;;;23.66;38.92
72262;BME280;60173;52.112;8.648;2023-04-22T12:16:09;99637.00;;;23.22;38.77
72262;BME280;60173;52.112;8.648;2023-04-22T12:18:38;99639.28;;;23.41;39.15
72262;BME280;60173;52.112;8.648;2023-04-22T12:21:09;99642.59;;;23.15;39.32
72262;BME280;60173;52.112;8.648;2023-04-22T12:23:51;99644.34;;;22.55;40.61
72262;BME280;60173;52.112;8.648;2023-04-22T12:26:19;99645.94;;;22.38;41.06
72262;BME280;60173;52.112;8.648;2023-04-22T12:28:49;99645.88;;;22.67;40.30
72262;BME280;60173;52.112;8.648;2023-04-22T12:31:17;99641.81;;;23.07;39.71
72262;BME280;60173;52.112;8.648;2023-04-22T12:33:44;99635.28;;;23.50;39.27
72262;BME280;60173;52.112;8.648;2023-04-22T12:36:11;99635.66;;;24.04;38.22
72262;BME280;60173;52.112;8.648;2023-04-22T12:38:37;99630.72;;;24.26;37.59
72262;BME280;60173;52.112;8.648;2023-04-22T12:41:05;99620.03;;;23.79;37.70
72262;BME280;60173;52.112;8.648;2023-04-22T12:43:32;99631.59;;;23.67;38.23
72262;BME280;60173;52.112;8.648;2023-04-22T12:45:59;99623.16;;;23.85;39.14
72262;BME280;60173;52.112;8.648;2023-04-22T12:48:25;99609.56;;;23.98;36.45
72262;BME280;60173;52.112;8.648;2023-04-22T12:50:52;99609.00;;;23.68;37.91
72262;BME280;60173;52.112;8.648;2023-04-22T12:53:20;99617.81;;;23.53;37.83
72262;BME280;60173;52.112;8.648;2023-04-22T12:55:46;99616.00;;;23.32;38.76
72262;BME280;60173;52.112;8.648;2023-04-22T12:58:13;99617.09;;;23.41;39.63
72262;BME280;60173;52.112;8.648;2023-04-22T13:00:39;99611.66;;;23.27;38.86
72262;BME280;60173;52.112;8.648;2023-04-22T13:03:05;99604.28;;;22.92;39.02
72262;BME280;60173;52.112;8.648;2023-04-22T13:05:32;99601.66;;;22.60;38.57
72262;BME280;60173;52.112;8.648;2023-04-22T13:07:58;99605.66;;;22.33;39.54
72262;BME280;60173;52.112;8.648;2023-04-22T13:10:33;99596.97;;;22.06;40.79
72262;BME280;60173;52.112;8.648;2023-04-22T13:12:59;99590.69;;;21.88;40.47
72262;BME280;60173;52.112;8.648;2023-04-22T13:15:42;99596.19;;;21.81;40.26
72262;BME280;60173;52.112;8.648;2023-04-22T13:18:09;99600.53;;;21.75;39.74
72262;BME280;60173;52.112;8.648;2023-04-22T13:20:35;99604.88;;;21.54;39.51
72262;BME280;60173;52.112;8.648;2023-04-22T13:23:01;99593.03;;;21.64;40.47
72262;BME280;60173;52.112;8.648;2023-04-22T13:25:28;99603.69;;;21.77;40.16